Time;durP1;ratioP1;P1;durP2;ratioP2;P2;SDS_P1;SDS_P2;PMS_P1;PMS_P2;Temp;Humidity;BMP_temperature;BMP_pressure;BME280_temperature;BME280_humidity;BME280_pressure;Samples;Min_cycle;Max_cycle;Signal;HPM_P1;HPM_P2
2023/07/19 00:01:20;;;;;;;10.95;2.42;;;;;;;;;;4975830;28;20054;-69
2023/07/19 00:03:46;;;;;;;6.28;2.20;;;;;;;;;;4976101;28;20034;-68
2023/07/19 00:06:11;;;;;;;10.23;2.38;;;;;;;;;;4976759;28;20595;-68
2023/07/19 00:08:36;;;;;;;5.55;1.92;;;;;;;;;;4975623;28;20027;-68
2023/07/19 00:11:01;;;;;;;4.85;2.05;;;;;;;;;;4977265;28;20051;-68
2023/07/19 00:13:27;;;;;;;8.88;2.22;;;;;;;;;;4977095;28;20034;-69
2023/07/19 00:15:52;;;;;;;8.10;2.03;;;;;;;;;;4977068;28;20055;-69
2023/07/19 00:18:18;;;;;;;8.05;2.20;;;;;;;;;;4976608;28;20058;-69
2023/07/19 00:20:43;;;;;;;7.60;2.47;;;;;;;;;;4976617;28;20119;-68
2023/07/19 00:23:08;;;;;;;8.75;2.22;;;;;;;;;;4976130;28;20081;-69
2023/07/19 00:25:34;;;;;;;7.22;2.13;;;;;;;;;;4975691;28;20046;-69
2023/07/19 00:27:59;;;;;;;10.70;3.33;;;;;;;;;;4976616;28;20039;-69
2023/07/19 00:30:24;;;;;;;6.47;3.28;;;;;;;;;;4974948;28;20030;-69
2023/07/19 00:32:50;;;;;;;8.77;3.55;;;;;;;;;;4976920;28;20419;-69
2023/07/19 00:35:15;;;;;;;11.30;4.00;;;;;;;;;;4975441;28;20503;-69
2023/07/19 00:37:43;;;;;;;8.52;3.72;;;;;;;;;;4976790;28;20030;-68
2023/07/19 00:40:08;;;;;;;7.45;3.60;;;;;;;;;;4976597;28;20035;-69
2023/07/19 00:42:34;;;;;;;7.40;2.75;;;;;;;;;;4976703;28;20057;-69
2023/07/19 00:44:59;;;;;;;9.52;4.07;;;;;;;;;;4976505;28;20101;-69
2023/07/19 00:47:24;;;;;;;11.05;3.47;;;;;;;;;;4976680;28;20034;-69
2023/07/19 00:49:50;;;;;;;9.07;3.40;;;;;;;;;;4974815;28;20042;-69
2023/07/19 00:52:16;;;;;;;11.30;2.40;;;;;;;;;;4975357;28;20038;-69
2023/07/19 00:54:42;;;;;;;5.93;2.50;;;;;;;;;;4975986;28;20038;-68
2023/07/19 00:57:07;;;;;;;7.15;2.47;;;;;;;;;;4976458;28;20134;-69
2023/07/19 00:59:33;;;;;;;8.18;2.75;;;;;;;;;;4975022;28;20030;-69
2023/07/19 01:01:59;;;;;;;4.53;2.60;;;;;;;;;;4975145;28;20049;-68
2023/07/19 01:04:25;;;;;;;8.73;2.88;;;;;;;;;;4976166;28;20089;-69
2023/07/19 01:06:51;;;;;;;5.53;2.63;;;;;;;;;;4976205;28;20089;-70
2023/07/19 01:09:16;;;;;;;10.68;3.20;;;;;;;;;;4975112;28;20050;-68
2023/07/19 01:11:41;;;;;;;6.53;3.20;;;;;;;;;;4976042;28;20169;-68
2023/07/19 01:14:07;;;;;;;14.50;3.45;;;;;;;;;;4975943;28;20161;-69
2023/07/19 01:16:33;;;;;;;11.07;2.78;;;;;;;;;;4975902;28;20081;-69
2023/07/19 01:18:58;;;;;;;15.10;3.42;;;;;;;;;;4975402;28;20117;-69
2023/07/19 01:21:24;;;;;;;12.40;3.03;;;;;;;;;;4975253;28;20114;-70
2023/07/19 01:23:50;;;;;;;6.97;2.72;;;;;;;;;;4975840;28;20177;-69
2023/07/19 01:26:15;;;;;;;6.38;3.03;;;;;;;;;;4975883;28;20035;-69
2023/07/19 01:28:41;;;;;;;8.15;3.28;;;;;;;;;;4974603;28;20031;-69
2023/07/19 01:31:06;;;;;;;9.55;3.05;;;;;;;;;;4970624;28;20039;-69
2023/07/19 01:33:32;;;;;;;8.73;3.22;;;;;;;;;;4974475;28;20054;-68
2023/07/19 01:35:58;;;;;;;6.70;3.10;;;;;;;;;;4974290;28;20037;-69
2023/07/19 01:38:23;;;;;;;7.53;3.13;;;;;;;;;;4975821;28;20047;-69
2023/07/19 01:40:48;;;;;;;4.65;3.15;;;;;;;;;;4973586;28;20122;-68
2023/07/19 01:43:14;;;;;;;9.15;3.42;;;;;;;;;;4974978;28;20035;-69
2023/07/19 01:45:39;;;;;;;8.52;3.40;;;;;;;;;;4975325;28;20031;-68
2023/07/19 01:48:05;;;;;;;8.68;3.35;;;;;;;;;;4975486;28;20038;-69
2023/07/19 01:50:30;;;;;;;12.30;3.88;;;;;;;;;;4974503;28;20071;-68
2023/07/19 01:52:55;;;;;;;8.80;2.92;;;;;;;;;;4975447;28;20076;-68
2023/07/19 01:55:21;;;;;;;8.68;3.10;;;;;;;;;;4975170;28;20034;-69
2023/07/19 01:57:47;;;;;;;9.75;3.47;;;;;;;;;;4975353;28;20113;-68
2023/07/19 02:00:12;;;;;;;7.13;3.25;;;;;;;;;;4975031;28;20046;-69
2023/07/19 02:02:37;;;;;;;7.68;2.67;;;;;;;;;;4975081;28;20042;-68
2023/07/19 02:05:03;;;;;;;11.70;3.38;;;;;;;;;;4973803;28;20027;-69
2023/07/19 02:07:28;;;;;;;9.25;2.70;;;;;;;;;;4974888;28;20041;-69
2023/07/19 02:09:54;;;;;;;7.45;2.85;;;;;;;;;;4973976;28;20046;-68
2023/07/19 02:12:19;;;;;;;4.78;2.63;;;;;;;;;;4975183;28;20057;-69
2023/07/19 02:14:44;;;;;;;9.70;3.53;;;;;;;;;;4973379;28;20050;-69
2023/07/19 02:17:10;;;;;;;9.73;3.38;;;;;;;;;;4975024;28;20047;-69
2023/07/19 02:19:35;;;;;;;10.27;3.03;;;;;;;;;;4974820;28;20054;-68
2023/07/19 02:22:00;;;;;;;9.65;2.53;;;;;;;;;;4974891;28;20092;-69
2023/07/19 02:24:26;;;;;;;7.75;2.83;;;;;;;;;;4974115;28;20398;-69
2023/07/19 02:26:51;;;;;;;5.82;2.72;;;;;;;;;;4974400;28;20045;-69
2023/07/19 02:29:17;;;;;;;8.48;2.83;;;;;;;;;;4974810;28;20034;-68
2023/07/19 02:31:42;;;;;;;5.43;2.53;;;;;;;;;;4974682;28;20356;-68
2023/07/19 02:34:07;;;;;;;10.88;2.80;;;;;;;;;;4974662;28;20101;-69
2023/07/19 02:36:36;;;;;;;6.50;2.63;;;;;;;;;;4973531;28;20395;-69
2023/07/19 02:39:03;;;;;;;5.07;2.30;;;;;;;;;;4973356;28;20097;-68
2023/07/19 02:41:28;;;;;;;5.53;2.65;;;;;;;;;;4974302;28;20046;-69
2023/07/19 02:43:54;;;;;;;8.50;2.75;;;;;;;;;;4974610;28;20042;-69
2023/07/19 02:46:20;;;;;;;12.88;2.63;;;;;;;;;;4973081;28;20073;-69
2023/07/19 02:48:45;;;;;;;6.13;2.90;;;;;;;;;;4974500;28;20035;-69
2023/07/19 02:51:10;;;;;;;6.97;2.90;;;;;;;;;;4974312;28;20402;-69
2023/07/19 02:53:37;;;;;;;9.90;2.80;;;;;;;;;;4974472;28;20122;-68
2023/07/19 02:56:02;;;;;;;7.70;2.38;;;;;;;;;;4974237;28;20030;-69
2023/07/19 02:58:28;;;;;;;5.95;2.53;;;;;;;;;;4969416;28;20046;-69
2023/07/19 03:00:53;;;;;;;8.73;3.30;;;;;;;;;;4974244;28;20131;-69
2023/07/19 03:03:19;;;;;;;8.85;2.63;;;;;;;;;;4974468;28;20081;-69
2023/07/19 03:05:44;;;;;;;9.70;2.95;;;;;;;;;;4974223;28;20387;-69
2023/07/19 03:08:11;;;;;;;5.50;2.58;;;;;;;;;;4974274;28;20113;-69
2023/07/19 03:10:36;;;;;;;5.25;2.35;;;;;;;;;;4973199;28;20093;-69
2023/07/19 03:13:02;;;;;;;8.55;2.65;;;;;;;;;;4972748;28;20031;-69
2023/07/19 03:15:32;;;;;;;7.20;2.85;;;;;;;;;;4974166;28;20122;-69
2023/07/19 03:17:58;;;;;;;4.18;2.40;;;;;;;;;;4974185;28;20050;-69
2023/07/19 03:20:24;;;;;;;7.53;2.92;;;;;;;;;;4974320;28;20047;-68
2023/07/19 03:22:49;;;;;;;6.97;2.55;;;;;;;;;;4974129;28;20039;-69
2023/07/19 03:25:14;;;;;;;4.70;2.47;;;;;;;;;;4974230;28;20035;-69
2023/07/19 03:27:40;;;;;;;7.82;2.88;;;;;;;;;;4974019;28;20037;-69
2023/07/19 03:30:06;;;;;;;9.52;2.88;;;;;;;;;;4974155;28;20460;-69
2023/07/19 03:32:32;;;;;;;10.52;3.20;;;;;;;;;;4974112;28;20082;-68
2023/07/19 03:34:57;;;;;;;8.30;3.38;;;;;;;;;;4973941;28;20070;-69
2023/07/19 03:37:22;;;;;;;6.38;3.15;;;;;;;;;;4974498;28;20041;-68
2023/07/19 03:39:48;;;;;;;10.93;3.13;;;;;;;;;;4974254;28;20038;-68
2023/07/19 03:42:13;;;;;;;8.07;2.78;;;;;;;;;;4974094;28;20031;-69
2023/07/19 03:44:38;;;;;;;10.57;3.38;;;;;;;;;;4973708;28;20372;-69
2023/07/19 03:47:04;;;;;;;9.75;3.00;;;;;;;;;;4973786;28;20042;-69
2023/07/19 03:49:29;;;;;;;8.38;3.40;;;;;;;;;;4973550;28;20388;-69
2023/07/19 03:51:54;;;;;;;7.38;3.00;;;;;;;;;;4974036;28;20039;-68
2023/07/19 03:54:20;;;;;;;8.57;3.55;;;;;;;;;;4973066;28;20043;-69
2023/07/19 03:56:45;;;;;;;9.50;3.25;;;;;;;;;;4973773;28;20038;-68
2023/07/19 03:59:11;;;;;;;12.48;3.10;;;;;;;;;;4973929;28;20104;-68
2023/07/19 04:01:36;;;;;;;9.55;3.50;;;;;;;;;;4972439;28;20090;-69
2023/07/19 04:04:03;;;;;;;8.18;3.22;;;;;;;;;;4974061;28;20047;-69
2023/07/19 04:06:28;;;;;;;10.70;3.55;;;;;;;;;;4976124;28;20042;-69
2023/07/19 04:08:54;;;;;;;10.88;3.47;;;;;;;;;;4974644;28;20471;-69
2023/07/19 04:11:19;;;;;;;15.20;4.35;;;;;;;;;;4977196;28;20391;-68
2023/07/19 04:13:45;;;;;;;12.82;4.07;;;;;;;;;;4976920;28;20042;-68
2023/07/19 04:16:10;;;;;;;14.60;4.05;;;;;;;;;;4976812;28;20038;-69
2023/07/19 04:18:36;;;;;;;13.25;3.50;;;;;;;;;;4977217;28;20133;-68
2023/07/19 04:21:02;;;;;;;9.68;3.67;;;;;;;;;;4976928;28;20038;-69
2023/07/19 04:23:27;;;;;;;14.70;4.03;;;;;;;;;;4977295;28;20041;-68
2023/07/19 04:25:53;;;;;;;10.38;4.18;;;;;;;;;;4977042;28;20407;-68
2023/07/19 04:28:19;;;;;;;11.75;3.83;;;;;;;;;;4976534;28;20427;-69
2023/07/19 04:30:45;;;;;;;17.65;4.70;;;;;;;;;;4977021;28;20042;-68
2023/07/19 04:33:10;;;;;;;14.43;4.20;;;;;;;;;;4976729;28;20065;-68
2023/07/19 04:35:36;;;;;;;12.27;4.53;;;;;;;;;;4976450;28;20054;-69
2023/07/19 04:38:03;;;;;;;11.25;4.38;;;;;;;;;;4976602;28;20069;-68
2023/07/19 04:40:29;;;;;;;10.93;4.32;;;;;;;;;;4976552;28;20082;-68
2023/07/19 04:42:55;;;;;;;16.38;4.65;;;;;;;;;;4976669;28;20043;-69
2023/07/19 04:45:20;;;;;;;11.25;4.20;;;;;;;;;;4976756;28;20050;-69
2023/07/19 04:47:45;;;;;;;15.73;3.95;;;;;;;;;;4976303;28;20475;-68
2023/07/19 04:50:11;;;;;;;14.77;4.47;;;;;;;;;;4976432;28;20125;-69
2023/07/19 04:52:36;;;;;;;10.75;4.22;;;;;;;;;;4976528;28;20027;-69
2023/07/19 04:55:03;;;;;;;16.05;4.25;;;;;;;;;;4976354;28;20118;-68
2023/07/19 04:57:28;;;;;;;11.57;3.75;;;;;;;;;;4975356;28;20049;-68
2023/07/19 04:59:53;;;;;;;8.05;3.80;;;;;;;;;;4976087;28;20058;-69
2023/07/19 05:02:19;;;;;;;9.65;3.80;;;;;;;;;;4976220;28;20043;-69
2023/07/19 05:04:44;;;;;;;9.73;3.55;;;;;;;;;;4976219;28;20045;-69
2023/07/19 05:07:09;;;;;;;8.20;3.63;;;;;;;;;;4976142;28;20035;-68
2023/07/19 05:09:35;;;;;;;15.60;3.83;;;;;;;;;;4976251;28;20121;-69
2023/07/19 05:12:00;;;;;;;7.50;3.58;;;;;;;;;;4976145;28;20185;-69
2023/07/19 05:14:26;;;;;;;9.70;3.70;;;;;;;;;;4975992;28;20070;-69
2023/07/19 05:16:52;;;;;;;10.40;3.63;;;;;;;;;;4975107;28;20448;-69
2023/07/19 05:19:17;;;;;;;7.43;3.05;;;;;;;;;;4974689;28;20431;-69
2023/07/19 05:21:42;;;;;;;6.43;3.00;;;;;;;;;;4974760;28;20039;-69
2023/07/19 05:24:08;;;;;;;10.55;3.25;;;;;;;;;;4975770;28;20043;-69
2023/07/19 05:26:33;;;;;;;7.40;3.28;;;;;;;;;;4975883;28;20058;-69
2023/07/19 05:28:59;;;;;;;6.88;3.38;;;;;;;;;;4974543;28;20035;-69
2023/07/19 05:31:24;;;;;;;6.55;3.08;;;;;;;;;;4975763;28;20035;-69
2023/07/19 05:33:49;;;;;;;6.15;2.95;;;;;;;;;;4975931;28;20046;-68
2023/07/19 05:36:15;;;;;;;12.27;3.50;;;;;;;;;;4974282;28;20041;-69
2023/07/19 05:38:40;;;;;;;8.38;3.60;;;;;;;;;;4974331;28;20043;-69
2023/07/19 05:41:08;;;;;;;5.15;3.00;;;;;;;;;;4975317;28;20475;-69
2023/07/19 05:43:34;;;;;;;4.70;2.80;;;;;;;;;;4975473;28;20041;-69
2023/07/19 05:46:04;;;;;;;8.10;2.58;;;;;;;;;;4975590;28;20035;-69
2023/07/19 05:48:29;;;;;;;5.50;2.33;;;;;;;;;;4974247;28;20086;-69
2023/07/19 05:50:54;;;;;;;5.18;2.75;;;;;;;;;;4975418;28;20043;-69
2023/07/19 05:53:20;;;;;;;7.85;2.85;;;;;;;;;;4975386;28;20081;-69
2023/07/19 05:55:45;;;;;;;6.38;2.35;;;;;;;;;;4975169;28;20046;-69
2023/07/19 05:58:10;;;;;;;7.03;2.65;;;;;;;;;;4975224;28;20030;-69
2023/07/19 06:00:36;;;;;;;6.13;2.33;;;;;;;;;;4975375;28;20050;-69
2023/07/19 06:03:01;;;;;;;8.00;2.20;;;;;;;;;;4975115;28;20045;-70
2023/07/19 06:05:26;;;;;;;3.90;1.80;;;;;;;;;;4975061;28;20034;-69
2023/07/19 06:07:52;;;;;;;3.72;1.80;;;;;;;;;;4974362;28;20058;-69
2023/07/19 06:10:18;;;;;;;3.55;1.65;;;;;;;;;;4972993;28;20062;-69
2023/07/19 06:12:44;;;;;;;7.55;2.00;;;;;;;;;;4974941;28;20075;-69
2023/07/19 06:15:09;;;;;;;4.03;1.83;;;;;;;;;;4973536;28;20038;-70
2023/07/19 06:17:35;;;;;;;3.60;1.50;;;;;;;;;;4974707;28;20113;-70
2023/07/19 06:20:01;;;;;;;5.47;1.50;;;;;;;;;;4972786;28;20038;-70
2023/07/19 06:22:27;;;;;;;4.63;1.60;;;;;;;;;;4974987;28;20368;-70
2023/07/19 06:24:52;;;;;;;6.35;1.42;;;;;;;;;;4974473;28;20089;-70
2023/07/19 06:27:17;;;;;;;4.15;1.33;;;;;;;;;;4974836;28;20031;-70
2023/07/19 06:29:43;;;;;;;4.13;1.80;;;;;;;;;;4974034;28;20089;-70
2023/07/19 06:32:09;;;;;;;2.97;1.30;;;;;;;;;;4974819;28;20043;-69
2023/07/19 06:34:34;;;;;;;3.85;1.55;;;;;;;;;;4973176;28;20050;-70
2023/07/19 06:37:00;;;;;;;7.95;1.60;;;;;;;;;;4974625;28;20038;-70
2023/07/19 06:39:25;;;;;;;3.92;1.40;;;;;;;;;;4974661;28;20038;-70
2023/07/19 06:41:50;;;;;;;4.43;1.60;;;;;;;;;;4974221;28;20121;-70
2023/07/19 06:44:16;;;;;;;4.03;1.60;;;;;;;;;;4973843;28;20114;-70
2023/07/19 06:46:41;;;;;;;4.00;1.30;;;;;;;;;;4974690;28;20053;-70
2023/07/19 06:49:07;;;;;;;3.17;1.25;;;;;;;;;;4974405;28;20034;-70
2023/07/19 06:51:32;;;;;;;4.43;1.50;;;;;;;;;;4974248;28;20031;-70
2023/07/19 06:53:57;;;;;;;4.30;1.30;;;;;;;;;;4974458;28;20043;-70
2023/07/19 06:56:23;;;;;;;3.92;1.15;;;;;;;;;;4974437;28;20031;-70
2023/07/19 06:58:49;;;;;;;3.97;1.20;;;;;;;;;;4974421;28;20034;-70
2023/07/19 07:01:14;;;;;;;2.42;1.10;;;;;;;;;;4974594;28;20073;-70
2023/07/19 07:03:40;;;;;;;2.92;1.00;;;;;;;;;;4974143;28;20038;-70
2023/07/19 07:06:05;;;;;;;4.25;1.20;;;;;;;;;;4974480;28;20054;-71
2023/07/19 07:08:31;;;;;;;4.53;1.10;;;;;;;;;;4973323;28;20402;-70
2023/07/19 07:10:59;;;;;;;2.65;1.00;;;;;;;;;;4974265;28;20042;-70
2023/07/19 07:13:24;;;;;;;3.10;1.00;;;;;;;;;;4972960;28;20038;-71
2023/07/19 07:15:51;;;;;;;2.40;0.82;;;;;;;;;;4974339;28;20489;-70
2023/07/19 07:18:16;;;;;;;4.00;1.35;;;;;;;;;;4972907;28;20039;-70
2023/07/19 07:20:42;;;;;;;4.50;1.20;;;;;;;;;;4974222;28;20118;-70
2023/07/19 07:23:07;;;;;;;1.80;1.00;;;;;;;;;;4974153;28;20058;-70
2023/07/19 07:25:33;;;;;;;1.75;0.90;;;;;;;;;;4974337;28;20080;-70
2023/07/19 07:27:59;;;;;;;2.45;0.90;;;;;;;;;;4973814;28;20398;-70
2023/07/19 07:30:25;;;;;;;2.95;1.20;;;;;;;;;;4972550;28;20038;-70
2023/07/19 07:32:50;;;;;;;5.70;1.00;;;;;;;;;;4973117;28;20123;-71
2023/07/19 07:35:16;;;;;;;2.95;1.05;;;;;;;;;;4971082;28;20459;-70
2023/07/19 07:37:41;;;;;;;2.50;0.88;;;;;;;;;;4973970;28;20487;-71
2023/07/19 07:40:08;;;;;;;1.90;1.00;;;;;;;;;;4973296;28;20026;-70
2023/07/19 07:42:34;;;;;;;1.80;0.90;;;;;;;;;;4977928;28;20042;-68
2023/07/19 07:44:59;;;;;;;2.65;1.13;;;;;;;;;;4977394;28;20035;-68
2023/07/19 07:47:25;;;;;;;2.88;1.00;;;;;;;;;;4975802;28;20419;-68
2023/07/19 07:49:51;;;;;;;1.65;0.80;;;;;;;;;;4977479;28;20046;-68
2023/07/19 07:52:16;;;;;;;2.20;0.88;;;;;;;;;;4975645;28;20047;-68
2023/07/19 07:54:42;;;;;;;3.70;0.80;;;;;;;;;;4977444;28;20478;-68
2023/07/19 07:57:07;;;;;;;2.25;0.75;;;;;;;;;;4977408;28;20051;-69
2023/07/19 07:59:33;;;;;;;1.95;0.90;;;;;;;;;;4977498;28;20110;-68
2023/07/19 08:01:59;;;;;;;1.52;0.80;;;;;;;;;;4977506;28;20110;-68
2023/07/19 08:04:24;;;;;;;2.42;0.90;;;;;;;;;;4977001;28;20407;-68
2023/07/19 08:06:49;;;;;;;1.35;0.60;;;;;;;;;;4977126;28;20049;-68
2023/07/19 08:09:14;;;;;;;1.35;0.73;;;;;;;;;;4977246;28;20113;-68
2023/07/19 08:11:41;;;;;;;1.00;0.77;;;;;;;;;;4977416;28;20102;-68
2023/07/19 08:14:06;;;;;;;0.98;0.70;;;;;;;;;;4977147;28;20030;-69
2023/07/19 08:16:32;;;;;;;1.42;0.63;;;;;;;;;;4977058;28;20034;-68
2023/07/19 08:18:57;;;;;;;1.08;0.60;;;;;;;;;;4977479;28;20043;-68
2023/07/19 08:21:23;;;;;;;1.35;0.60;;;;;;;;;;4976572;28;20045;-68
2023/07/19 08:23:53;;;;;;;0.47;0.40;;;;;;;;;;4977103;28;20126;-68
2023/07/19 08:26:18;;;;;;;1.10;0.90;;;;;;;;;;4976878;28;20030;-68
2023/07/19 08:28:44;;;;;;;0.95;0.60;;;;;;;;;;4977090;28;20046;-68
2023/07/19 08:31:10;;;;;;;1.85;0.60;;;;;;;;;;4976925;28;20035;-68
2023/07/19 08:33:35;;;;;;;0.50;0.30;;;;;;;;;;4976858;28;20095;-68
2023/07/19 08:36:00;;;;;;;1.35;0.52;;;;;;;;;;4976665;28;20090;-71
2023/07/19 08:38:26;;;;;;;2.83;0.52;;;;;;;;;;4976498;28;20058;-71
2023/07/19 08:41:00;;;;;;;2.13;0.70;;;;;;;;;;4976044;28;20038;-70
2023/07/19 08:43:26;;;;;;;1.38;0.88;;;;;;;;;;4976423;28;20411;-71
2023/07/19 08:45:52;;;;;;;2.13;0.70;;;;;;;;;;4976467;28;20046;-71
2023/07/19 08:48:18;;;;;;;1.05;0.47;;;;;;;;;;4975445;28;20039;-71
2023/07/19 08:50:45;;;;;;;1.58;0.52;;;;;;;;;;4974238;28;20165;-71
2023/07/19 08:53:10;;;;;;;0.70;0.60;;;;;;;;;;4975198;28;20054;-71
2023/07/19 08:55:36;;;;;;;0.95;0.70;;;;;;;;;;4976101;28;20060;-71
2023/07/19 08:58:02;;;;;;;0.70;0.50;;;;;;;;;;4976191;28;20114;-70
2023/07/19 09:00:30;;;;;;;3.55;0.60;;;;;;;;;;4976111;28;20090;-70
2023/07/19 09:02:55;;;;;;;1.17;0.73;;;;;;;;;;4976426;28;20046;-71
2023/07/19 09:05:20;;;;;;;0.57;0.57;;;;;;;;;;4976123;28;20034;-71
2023/07/19 09:07:48;;;;;;;0.68;0.60;;;;;;;;;;4976259;28;20042;-71
2023/07/19 09:10:13;;;;;;;0.82;0.60;;;;;;;;;;4976300;28;20039;-71
2023/07/19 09:12:40;;;;;;;0.77;0.40;;;;;;;;;;4974869;28;20105;-72
2023/07/19 09:15:10;;;;;;;0.63;0.60;;;;;;;;;;4975150;28;20039;-68
2023/07/19 09:17:41;;;;;;;0.80;0.70;;;;;;;;;;4975625;28;20492;-68
2023/07/19 09:20:07;;;;;;;1.20;0.63;;;;;;;;;;4975995;28;20046;-69
2023/07/19 09:22:35;;;;;;;1.63;0.60;;;;;;;;;;4975986;28;20090;-68
2023/07/19 09:25:04;;;;;;;0.40;0.40;;;;;;;;;;4974320;28;20535;-69
2023/07/19 09:27:30;;;;;;;0.98;0.50;;;;;;;;;;4975278;28;20085;-68
2023/07/19 09:29:55;;;;;;;0.90;0.77;;;;;;;;;;4974768;28;20042;-68
2023/07/19 09:32:22;;;;;;;0.50;0.50;;;;;;;;;;4975450;28;20089;-68
2023/07/19 09:34:47;;;;;;;2.47;0.70;;;;;;;;;;4975823;28;20047;-68
2023/07/19 09:37:13;;;;;;;1.88;0.50;;;;;;;;;;4972707;28;20038;-69
2023/07/19 09:39:40;;;;;;;0.95;0.60;;;;;;;;;;4975302;28;20118;-68
2023/07/19 09:42:08;;;;;;;1.08;0.98;;;;;;;;;;4976093;28;20038;-68
2023/07/19 09:44:34;;;;;;;0.95;0.40;;;;;;;;;;4975494;28;20071;-68
2023/07/19 09:47:01;;;;;;;0.98;0.80;;;;;;;;;;4974254;28;20066;-68
2023/07/19 09:49:26;;;;;;;0.73;0.60;;;;;;;;;;4974305;28;20041;-68
2023/07/19 09:51:55;;;;;;;2.13;0.57;;;;;;;;;;4975559;28;20039;-68
2023/07/19 09:54:21;;;;;;;0.40;0.40;;;;;;;;;;4975226;28;20074;-68
2023/07/19 09:56:46;;;;;;;0.47;0.35;;;;;;;;;;4957930;28;20497;-68
2023/07/19 09:59:13;;;;;;;3.40;0.32;;;;;;;;;;4975377;28;20046;-68
2023/07/19 10:01:39;;;;;;;1.58;0.40;;;;;;;;;;4973989;28;20406;-70
2023/07/19 10:04:24;;;;;;;0.77;0.50;;;;;;;;;;4973067;28;20049;-70
2023/07/19 10:07:07;;;;;;;0.50;0.50;;;;;;;;;;4973897;28;20526;-68
2023/07/19 10:09:41;;;;;;;2.85;0.60;;;;;;;;;;4970224;28;20042;-68
2023/07/19 10:12:27;;;;;;;0.40;0.40;;;;;;;;;;4974021;28;20506;-68
2023/07/19 10:14:54;;;;;;;0.50;0.50;;;;;;;;;;4973489;28;20494;-68
2023/07/19 10:17:20;;;;;;;0.90;0.50;;;;;;;;;;4974986;28;20045;-69
2023/07/19 10:20:03;;;;;;;0.30;0.30;;;;;;;;;;4974920;28;20031;-69
2023/07/19 10:22:57;;;;;;;0.60;0.38;;;;;;;;;;4974838;28;20043;-68
2023/07/19 10:25:36;;;;;;;0.30;0.30;;;;;;;;;;4969093;28;20030;-68
2023/07/19 10:28:07;;;;;;;2.92;0.70;;;;;;;;;;4974797;28;20054;-68
2023/07/19 10:30:55;;;;;;;1.42;0.60;;;;;;;;;;4972270;28;20118;-68
2023/07/19 10:33:21;;;;;;;0.50;0.50;;;;;;;;;;4965139;28;20043;-68
2023/07/19 10:35:49;;;;;;;0.77;0.60;;;;;;;;;;4974387;28;20023;-68
2023/07/19 10:38:16;;;;;;;0.47;0.40;;;;;;;;;;4974757;28;20043;-68
2023/07/19 10:40:55;;;;;;;0.70;0.40;;;;;;;;;;4974260;28;20042;-69
2023/07/19 10:43:21;;;;;;;1.92;0.60;;;;;;;;;;4973458;28;20114;-68
2023/07/19 10:45:46;;;;;;;2.00;0.70;;;;;;;;;;4974666;28;20129;-68
2023/07/19 10:48:12;;;;;;;0.80;0.40;;;;;;;;;;4973327;28;20035;-71
2023/07/19 10:50:38;;;;;;;0.30;0.30;;;;;;;;;;4974613;28;20550;-70
2023/07/19 10:53:04;;;;;;;0.82;0.40;;;;;;;;;;4965011;28;20042;-70
2023/07/19 10:55:30;;;;;;;0.30;0.30;;;;;;;;;;4974390;28;20034;-70
2023/07/19 10:57:55;;;;;;;0.30;0.30;;;;;;;;;;4974122;28;20050;-70
2023/07/19 11:00:20;;;;;;;1.02;0.40;;;;;;;;;;4974438;28;20047;-70
2023/07/19 11:02:46;;;;;;;0.77;0.40;;;;;;;;;;4973149;28;20042;-70
2023/07/19 11:05:11;;;;;;;0.60;0.30;;;;;;;;;;4974376;28;20049;-70
2023/07/19 11:07:37;;;;;;;0.65;0.40;;;;;;;;;;4974316;28;20038;-70
2023/07/19 11:10:03;;;;;;;0.40;0.40;;;;;;;;;;4974266;28;20065;-70
2023/07/19 11:12:30;;;;;;;1.05;0.60;;;;;;;;;;4974248;28;20126;-69
2023/07/19 11:14:58;;;;;;;0.85;0.40;;;;;;;;;;4974413;28;20130;-70
2023/07/19 11:17:28;;;;;;;0.93;0.50;;;;;;;;;;4978136;28;20077;-70
2023/07/19 11:19:54;;;;;;;0.57;0.32;;;;;;;;;;4965835;28;20043;-69
2023/07/19 11:22:22;;;;;;;0.30;0.30;;;;;;;;;;4978006;28;20042;-70
2023/07/19 11:24:49;;;;;;;0.88;0.35;;;;;;;;;;4978320;28;20034;-69
2023/07/19 11:27:15;;;;;;;0.52;0.40;;;;;;;;;;4960702;28;20038;-70
2023/07/19 11:29:41;;;;;;;0.55;0.30;;;;;;;;;;4976950;28;20495;-70
2023/07/19 11:32:20;;;;;;;0.40;0.40;;;;;;;;;;4977673;28;20175;-70
2023/07/19 11:34:53;;;;;;;0.90;0.40;;;;;;;;;;4976936;28;20121;-70
2023/07/19 11:37:25;;;;;;;0.88;0.50;;;;;;;;;;4977483;28;20462;-70
2023/07/19 11:39:52;;;;;;;0.35;0.35;;;;;;;;;;4977880;28;20205;-70
2023/07/19 11:42:51;;;;;;;0.35;0.32;;;;;;;;;;4977771;28;20114;-70
2023/07/19 11:45:23;;;;;;;0.73;0.45;;;;;;;;;;4975622;28;20046;-70
2023/07/19 11:47:50;;;;;;;1.27;0.40;;;;;;;;;;4976567;28;20031;-70
2023/07/19 11:50:15;;;;;;;0.50;0.50;;;;;;;;;;4976253;28;20046;-70
2023/07/19 11:52:51;;;;;;;0.47;0.30;;;;;;;;;;4970669;28;20034;-69
2023/07/19 11:55:18;;;;;;;0.40;0.40;;;;;;;;;;4963519;28;20368;-70
2023/07/19 11:57:45;;;;;;;0.40;0.40;;;;;;;;;;4973034;28;20121;-70
2023/07/19 12:00:11;;;;;;;0.77;0.40;;;;;;;;;;4970115;28;20046;-70
2023/07/19 12:02:37;;;;;;;0.75;0.43;;;;;;;;;;4974534;28;20399;-70
2023/07/19 12:05:05;;;;;;;1.35;0.50;;;;;;;;;;4968611;28;20399;-70
2023/07/19 12:07:31;;;;;;;0.30;0.30;;;;;;;;;;4971001;28;20086;-69
2023/07/19 12:09:57;;;;;;;1.02;0.60;;;;;;;;;;4975330;28;20094;-69
2023/07/19 12:12:23;;;;;;;1.25;0.40;;;;;;;;;;4971153;28;20043;-70
2023/07/19 12:14:48;;;;;;;0.32;0.32;;;;;;;;;;4971667;28;20490;-70
2023/07/19 12:17:13;;;;;;;0.65;0.40;;;;;;;;;;4976970;28;20046;-70
2023/07/19 12:19:39;;;;;;;0.57;0.50;;;;;;;;;;4977027;28;20038;-70
2023/07/19 12:22:04;;;;;;;0.30;0.30;;;;;;;;;;4976785;28;20031;-69
2023/07/19 12:24:30;;;;;;;0.50;0.40;;;;;;;;;;4977039;28;20041;-69
2023/07/19 12:26:55;;;;;;;0.75;0.60;;;;;;;;;;4975737;28;20482;-70
2023/07/19 12:29:20;;;;;;;0.80;0.50;;;;;;;;;;4976781;28;20034;-69
2023/07/19 12:31:46;;;;;;;0.77;0.50;;;;;;;;;;4975766;28;20078;-70
2023/07/19 12:34:11;;;;;;;1.92;0.50;;;;;;;;;;4975625;28;20038;-70
2023/07/19 12:36:37;;;;;;;0.52;0.47;;;;;;;;;;4975569;28;20387;-69
2023/07/19 12:39:02;;;;;;;0.75;0.40;;;;;;;;;;4976844;28;20043;-69
2023/07/19 12:41:28;;;;;;;0.57;0.40;;;;;;;;;;4974633;28;20053;-70
2023/07/19 12:43:54;;;;;;;2.63;0.57;;;;;;;;;;4974843;28;20047;-69
2023/07/19 12:46:21;;;;;;;0.75;0.50;;;;;;;;;;4976696;28;20037;-70
2023/07/19 12:48:48;;;;;;;1.45;0.70;;;;;;;;;;4976485;28;20034;-70
2023/07/19 12:51:13;;;;;;;1.23;0.50;;;;;;;;;;4976219;28;20502;-69
2023/07/19 12:53:39;;;;;;;3.78;0.85;;;;;;;;;;4975944;28;20125;-70
2023/07/19 12:56:04;;;;;;;0.68;0.50;;;;;;;;;;4975116;28;20039;-70
2023/07/19 12:58:30;;;;;;;0.75;0.50;;;;;;;;;;4976349;28;20419;-70
2023/07/19 13:00:55;;;;;;;0.88;0.50;;;;;;;;;;4973115;28;20115;-69
2023/07/19 13:03:21;;;;;;;0.63;0.50;;;;;;;;;;4976303;28;20042;-70
2023/07/19 13:05:48;;;;;;;0.63;0.50;;;;;;;;;;4975301;28;20038;-70
2023/07/19 13:08:13;;;;;;;1.08;0.50;;;;;;;;;;4974798;28;20121;-70
2023/07/19 13:10:39;;;;;;;1.17;0.60;;;;;;;;;;4976117;28;20121;-70
2023/07/19 13:13:04;;;;;;;0.85;0.50;;;;;;;;;;4976486;28;20042;-69
2023/07/19 13:15:29;;;;;;;1.02;0.50;;;;;;;;;;4976110;28;20471;-69
2023/07/19 13:17:55;;;;;;;3.90;0.70;;;;;;;;;;4976173;28;20043;-69
2023/07/19 13:20:20;;;;;;;2.97;0.80;;;;;;;;;;4975982;28;20451;-70
2023/07/19 13:22:46;;;;;;;4.70;1.70;;;;;;;;;;4976132;28;20377;-69
2023/07/19 13:25:11;;;;;;;0.73;0.50;;;;;;;;;;4975810;28;20051;-69
2023/07/19 13:27:36;;;;;;;0.75;0.50;;;;;;;;;;4975918;28;20036;-69
2023/07/19 13:30:06;;;;;;;1.00;0.60;;;;;;;;;;4975842;28;20038;-69
2023/07/19 13:32:32;;;;;;;1.02;0.45;;;;;;;;;;4976131;28;20038;-69
2023/07/19 13:34:57;;;;;;;0.90;0.57;;;;;;;;;;4975499;28;20505;-69
2023/07/19 13:37:23;;;;;;;2.85;0.60;;;;;;;;;;4975682;28;20042;-69
2023/07/19 13:39:48;;;;;;;0.93;0.60;;;;;;;;;;4974895;28;20045;-69
2023/07/19 13:42:13;;;;;;;0.75;0.50;;;;;;;;;;4975977;28;20051;-70
2023/07/19 13:44:39;;;;;;;1.95;0.47;;;;;;;;;;4975215;28;20121;-70
2023/07/19 13:47:04;;;;;;;2.95;0.65;;;;;;;;;;4975592;28;20035;-69
2023/07/19 13:49:30;;;;;;;0.73;0.47;;;;;;;;;;4975427;28;20041;-69
2023/07/19 13:51:55;;;;;;;0.68;0.50;;;;;;;;;;4975566;28;20502;-69
2023/07/19 13:54:20;;;;;;;1.00;0.50;;;;;;;;;;4975333;28;20467;-70
2023/07/19 13:56:46;;;;;;;1.00;0.55;;;;;;;;;;4975493;28;20030;-69
2023/07/19 13:59:11;;;;;;;0.57;0.40;;;;;;;;;;4975266;28;20042;-69
2023/07/19 14:01:36;;;;;;;0.73;0.50;;;;;;;;;;4975393;28;20133;-70
2023/07/19 14:04:02;;;;;;;0.68;0.50;;;;;;;;;;4975301;28;20035;-69
2023/07/19 14:06:27;;;;;;;1.67;0.85;;;;;;;;;;4975020;28;20039;-69
2023/07/19 14:08:52;;;;;;;0.73;0.50;;;;;;;;;;4975192;28;20045;-69
2023/07/19 14:11:18;;;;;;;0.98;0.57;;;;;;;;;;4975052;28;20490;-70
2023/07/19 14:13:48;;;;;;;2.63;0.45;;;;;;;;;;4975220;28;20466;-69
2023/07/19 14:16:17;;;;;;;0.60;0.50;;;;;;;;;;4975123;28;20034;-69
2023/07/19 14:18:43;;;;;;;0.77;0.50;;;;;;;;;;4974941;28;20034;-69
2023/07/19 14:21:09;;;;;;;2.22;0.47;;;;;;;;;;4974924;28;20050;-69
2023/07/19 14:23:34;;;;;;;0.47;0.40;;;;;;;;;;4974952;28;20386;-69
2023/07/19 14:25:59;;;;;;;1.05;0.60;;;;;;;;;;4974753;28;20026;-69
2023/07/19 14:28:25;;;;;;;1.38;0.60;;;;;;;;;;4974820;28;20046;-69
2023/07/19 14:30:50;;;;;;;0.75;0.50;;;;;;;;;;4974818;28;20471;-70
2023/07/19 14:33:16;;;;;;;0.95;0.50;;;;;;;;;;4974951;28;20058;-69
2023/07/19 14:35:42;;;;;;;0.50;0.50;;;;;;;;;;4974685;28;20047;-69